sensor_id;sensor_type;location;lat;lon;timestamp;P1;durP1;ratioP1;P2;durP2;ratioP2
1402;SDS011;696;48.546;9.896;2023-02-14T00:01:57;48.78;;;21.77;;
1402;SDS011;696;48.546;9.896;2023-02-14T00:04:22;50.47;;;22.50;;
1402;SDS011;696;48.546;9.896;2023-02-14T00:06:48;51.50;;;22.17;;
1402;SDS011;696;48.546;9.896;2023-02-14T00:09:14;61.15;;;23.38;;
1402;SDS011;696;48.546;9.896;2023-02-14T00:11:41;45.45;;;22.15;;
1402;SDS011;696;48.546;9.896;2023-02-14T00:14:07;46.67;;;21.63;;
1402;SDS011;696;48.546;9.896;2023-02-14T00:16:51;46.70;;;21.05;;
1402;SDS011;696;48.546;9.896;2023-02-14T00:19:17;49.25;;;20.23;;
1402;SDS011;696;48.546;9.896;2023-02-14T00:21:44;48.75;;;21.67;;
1402;SDS011;696;48.546;9.896;2023-02-14T00:24:13;45.85;;;19.60;;
1402;SDS011;696;48.546;9.896;2023-02-14T00:26:43;46.95;;;21.17;;
1402;SDS011;696;48.546;9.896;2023-02-14T00:29:10;42.28;;;20.02;;
1402;SDS011;696;48.546;9.896;2023-02-14T00:31:37;38.90;;;20.17;;
1402;SDS011;696;48.546;9.896;2023-02-14T00:34:04;40.70;;;20.98;;
1402;SDS011;696;48.546;9.896;2023-02-14T00:36:29;42.17;;;20.40;;
1402;SDS011;696;48.546;9.896;2023-02-14T00:38:54;46.92;;;21.73;;
1402;SDS011;696;48.546;9.896;2023-02-14T00:41:20;50.03;;;20.20;;
1402;SDS011;696;48.546;9.896;2023-02-14T00:43:46;49.05;;;22.05;;
1402;SDS011;696;48.546;9.896;2023-02-14T00:46:12;51.28;;;22.63;;
1402;SDS011;696;48.546;9.896;2023-02-14T00:48:37;43.95;;;20.65;;
1402;SDS011;696;48.546;9.896;2023-02-14T00:51:03;40.33;;;20.23;;
1402;SDS011;696;48.546;9.896;2023-02-14T00:53:28;36.10;;;19.10;;
1402;SDS011;696;48.546;9.896;2023-02-14T00:55:54;38.42;;;19.58;;
1402;SDS011;696;48.546;9.896;2023-02-14T00:58:19;48.78;;;18.88;;
1402;SDS011;696;48.546;9.896;2023-02-14T01:00:44;41.00;;;19.67;;
1402;SDS011;696;48.546;9.896;2023-02-14T01:03:10;41.47;;;19.17;;
1402;SDS011;696;48.546;9.896;2023-02-14T01:05:35;36.83;;;18.48;;
1402;SDS011;696;48.546;9.896;2023-02-14T01:08:00;48.03;;;19.55;;
1402;SDS011;696;48.546;9.896;2023-02-14T01:10:26;45.00;;;20.27;;
1402;SDS011;696;48.546;9.896;2023-02-14T01:12:51;40.20;;;19.70;;
1402;SDS011;696;48.546;9.896;2023-02-14T01:15:16;38.05;;;21.48;;
1402;SDS011;696;48.546;9.896;2023-02-14T01:17:42;42.05;;;19.13;;
1402;SDS011;696;48.546;9.896;2023-02-14T01:20:07;37.70;;;19.58;;
1402;SDS011;696;48.546;9.896;2023-02-14T01:22:34;38.03;;;18.98;;
1402;SDS011;696;48.546;9.896;2023-02-14T01:25:03;44.05;;;19.42;;
1402;SDS011;696;48.546;9.896;2023-02-14T01:27:28;44.97;;;19.30;;
1402;SDS011;696;48.546;9.896;2023-02-14T01:29:54;34.85;;;18.08;;
1402;SDS011;696;48.546;9.896;2023-02-14T01:32:19;47.35;;;20.25;;
1402;SDS011;696;48.546;9.896;2023-02-14T01:34:44;42.97;;;18.05;;
1402;SDS011;696;48.546;9.896;2023-02-14T01:37:11;34.95;;;19.30;;
1402;SDS011;696;48.546;9.896;2023-02-14T01:39:37;36.97;;;19.10;;
1402;SDS011;696;48.546;9.896;2023-02-14T01:42:02;37.25;;;19.02;;
1402;SDS011;696;48.546;9.896;2023-02-14T01:47:13;41.55;;;19.83;;
1402;SDS011;696;48.546;9.896;2023-02-14T01:49:48;47.35;;;20.20;;
1402;SDS011;696;48.546;9.896;2023-02-14T01:52:18;44.13;;;18.65;;
1402;SDS011;696;48.546;9.896;2023-02-14T01:55:08;36.42;;;18.35;;
1402;SDS011;696;48.546;9.896;2023-02-14T01:57:37;49.67;;;17.48;;
1402;SDS011;696;48.546;9.896;2023-02-14T02:00:06;36.15;;;18.73;;
1402;SDS011;696;48.546;9.896;2023-02-14T02:03:07;32.50;;;16.80;;
1402;SDS011;696;48.546;9.896;2023-02-14T02:05:35;35.65;;;17.80;;
1402;SDS011;696;48.546;9.896;2023-02-14T02:08:02;33.90;;;17.60;;
1402;SDS011;696;48.546;9.896;2023-02-14T02:10:28;34.22;;;17.33;;
1402;SDS011;696;48.546;9.896;2023-02-14T02:12:53;34.25;;;16.33;;
1402;SDS011;696;48.546;9.896;2023-02-14T02:15:20;36.50;;;17.17;;
1402;SDS011;696;48.546;9.896;2023-02-14T02:21:03;31.00;;;16.92;;
1402;SDS011;696;48.546;9.896;2023-02-14T02:34:17;32.53;;;17.27;;
1402;SDS011;696;48.546;9.896;2023-02-14T02:42:48;31.65;;;17.35;;
1402;SDS011;696;48.546;9.896;2023-02-14T02:45:39;32.75;;;17.13;;
1402;SDS011;696;48.546;9.896;2023-02-14T02:48:27;32.17;;;16.92;;
1402;SDS011;696;48.546;9.896;2023-02-14T02:50:58;36.92;;;18.70;;
1402;SDS011;696;48.546;9.896;2023-02-14T02:53:47;37.95;;;18.20;;
1402;SDS011;696;48.546;9.896;2023-02-14T02:56:38;36.33;;;16.83;;
1402;SDS011;696;48.546;9.896;2023-02-14T02:59:14;43.60;;;17.20;;
1402;SDS011;696;48.546;9.896;2023-02-14T03:01:43;34.65;;;17.33;;
1402;SDS011;696;48.546;9.896;2023-02-14T03:04:13;41.92;;;17.55;;
1402;SDS011;696;48.546;9.896;2023-02-14T03:06:58;36.60;;;18.45;;
1402;SDS011;696;48.546;9.896;2023-02-14T03:12:02;46.08;;;19.27;;
1402;SDS011;696;48.546;9.896;2023-02-14T03:14:40;40.58;;;18.73;;
1402;SDS011;696;48.546;9.896;2023-02-14T03:17:16;46.20;;;19.83;;
1402;SDS011;696;48.546;9.896;2023-02-14T03:25:51;49.83;;;18.55;;
1402;SDS011;696;48.546;9.896;2023-02-14T03:28:46;31.95;;;17.58;;
1402;SDS011;696;48.546;9.896;2023-02-14T03:34:42;38.40;;;18.70;;
1402;SDS011;696;48.546;9.896;2023-02-14T03:40:15;39.33;;;20.35;;
1402;SDS011;696;48.546;9.896;2023-02-14T03:42:46;59.67;;;20.13;;
1402;SDS011;696;48.546;9.896;2023-02-14T03:45:18;39.13;;;17.60;;
1402;SDS011;696;48.546;9.896;2023-02-14T03:47:47;38.70;;;19.20;;
1402;SDS011;696;48.546;9.896;2023-02-14T03:50:16;38.30;;;19.48;;
1402;SDS011;696;48.546;9.896;2023-02-14T03:52:43;44.33;;;19.10;;
1402;SDS011;696;48.546;9.896;2023-02-14T03:55:10;43.92;;;19.42;;
1402;SDS011;696;48.546;9.896;2023-02-14T03:57:41;33.08;;;18.08;;
1402;SDS011;696;48.546;9.896;2023-02-14T04:02:38;42.22;;;18.35;;
1402;SDS011;696;48.546;9.896;2023-02-14T04:05:14;34.58;;;18.40;;
1402;SDS011;696;48.546;9.896;2023-02-14T04:07:46;50.42;;;20.02;;
1402;SDS011;696;48.546;9.896;2023-02-14T04:10:16;40.97;;;18.95;;
1402;SDS011;696;48.546;9.896;2023-02-14T04:12:41;36.38;;;17.98;;
1402;SDS011;696;48.546;9.896;2023-02-14T04:15:07;37.05;;;19.17;;
1402;SDS011;696;48.546;9.896;2023-02-14T04:17:33;51.50;;;19.77;;
1402;SDS011;696;48.546;9.896;2023-02-14T04:20:17;39.22;;;18.40;;
1402;SDS011;696;48.546;9.896;2023-02-14T04:22:43;37.83;;;19.52;;
1402;SDS011;696;48.546;9.896;2023-02-14T04:25:10;36.83;;;18.85;;
1402;SDS011;696;48.546;9.896;2023-02-14T04:27:35;38.50;;;18.65;;
1402;SDS011;696;48.546;9.896;2023-02-14T04:30:00;45.60;;;19.52;;
1402;SDS011;696;48.546;9.896;2023-02-14T04:32:26;42.88;;;19.23;;
1402;SDS011;696;48.546;9.896;2023-02-14T04:34:51;35.22;;;18.00;;
1402;SDS011;696;48.546;9.896;2023-02-14T04:37:18;34.35;;;18.10;;
1402;SDS011;696;48.546;9.896;2023-02-14T04:39:43;36.05;;;18.10;;
1402;SDS011;696;48.546;9.896;2023-02-14T04:42:09;42.30;;;18.25;;
1402;SDS011;696;48.546;9.896;2023-02-14T04:44:34;40.90;;;18.67;;
1402;SDS011;696;48.546;9.896;2023-02-14T04:47:02;32.30;;;17.90;;
1402;SDS011;696;48.546;9.896;2023-02-14T04:49:27;37.55;;;18.08;;
1402;SDS011;696;48.546;9.896;2023-02-14T04:51:53;51.15;;;19.92;;
1402;SDS011;696;48.546;9.896;2023-02-14T04:54:18;38.15;;;19.10;;
1402;SDS011;696;48.546;9.896;2023-02-14T04:56:43;36.08;;;17.40;;
1402;SDS011;696;48.546;9.896;2023-02-14T04:59:08;44.40;;;19.88;;
1402;SDS011;696;48.546;9.896;2023-02-14T05:01:34;38.15;;;18.90;;
1402;SDS011;696;48.546;9.896;2023-02-14T05:03:59;41.33;;;19.58;;
1402;SDS011;696;48.546;9.896;2023-02-14T05:06:25;42.20;;;18.23;;
1402;SDS011;696;48.546;9.896;2023-02-14T05:08:50;43.20;;;19.88;;
1402;SDS011;696;48.546;9.896;2023-02-14T05:11:15;38.55;;;19.27;;
1402;SDS011;696;48.546;9.896;2023-02-14T05:13:41;38.97;;;18.48;;
1402;SDS011;696;48.546;9.896;2023-02-14T05:16:06;40.83;;;17.77;;
1402;SDS011;696;48.546;9.896;2023-02-14T05:18:31;33.97;;;17.73;;
1402;SDS011;696;48.546;9.896;2023-02-14T05:20:57;30.48;;;17.48;;
1402;SDS011;696;48.546;9.896;2023-02-14T05:23:22;35.95;;;17.80;;
1402;SDS011;696;48.546;9.896;2023-02-14T05:25:48;31.80;;;17.23;;
1402;SDS011;696;48.546;9.896;2023-02-14T05:28:13;27.90;;;16.45;;
1402;SDS011;696;48.546;9.896;2023-02-14T05:30:39;47.00;;;18.75;;
1402;SDS011;696;48.546;9.896;2023-02-14T05:33:05;35.08;;;17.60;;
1402;SDS011;696;48.546;9.896;2023-02-14T05:35:31;32.95;;;16.52;;
1402;SDS011;696;48.546;9.896;2023-02-14T05:37:56;35.95;;;17.75;;
1402;SDS011;696;48.546;9.896;2023-02-14T05:40:22;30.55;;;16.30;;
1402;SDS011;696;48.546;9.896;2023-02-14T05:42:47;34.83;;;17.42;;
1402;SDS011;696;48.546;9.896;2023-02-14T05:45:12;34.65;;;17.50;;
1402;SDS011;696;48.546;9.896;2023-02-14T05:47:38;36.67;;;17.80;;
1402;SDS011;696;48.546;9.896;2023-02-14T05:50:04;35.28;;;17.55;;
1402;SDS011;696;48.546;9.896;2023-02-14T05:52:30;33.08;;;17.48;;
1402;SDS011;696;48.546;9.896;2023-02-14T05:54:55;34.40;;;17.15;;
1402;SDS011;696;48.546;9.896;2023-02-14T05:57:20;35.70;;;16.95;;
1402;SDS011;696;48.546;9.896;2023-02-14T05:59:46;32.42;;;15.13;;
1402;SDS011;696;48.546;9.896;2023-02-14T06:02:11;33.20;;;17.33;;
1402;SDS011;696;48.546;9.896;2023-02-14T06:04:38;39.58;;;16.70;;
1402;SDS011;696;48.546;9.896;2023-02-14T06:07:03;32.38;;;16.20;;
1402;SDS011;696;48.546;9.896;2023-02-14T06:09:29;32.75;;;16.63;;
1402;SDS011;696;48.546;9.896;2023-02-14T06:11:54;40.08;;;18.60;;
1402;SDS011;696;48.546;9.896;2023-02-14T06:14:19;39.97;;;17.25;;
1402;SDS011;696;48.546;9.896;2023-02-14T06:16:44;31.98;;;16.20;;
1402;SDS011;696;48.546;9.896;2023-02-14T06:19:10;35.40;;;17.25;;
1402;SDS011;696;48.546;9.896;2023-02-14T06:21:36;31.13;;;16.55;;
1402;SDS011;696;48.546;9.896;2023-02-14T06:24:01;33.85;;;16.60;;
1402;SDS011;696;48.546;9.896;2023-02-14T06:26:27;32.13;;;14.80;;
1402;SDS011;696;48.546;9.896;2023-02-14T06:28:56;34.85;;;16.52;;
1402;SDS011;696;48.546;9.896;2023-02-14T06:31:22;34.20;;;16.35;;
1402;SDS011;696;48.546;9.896;2023-02-14T06:33:48;30.38;;;15.48;;
1402;SDS011;696;48.546;9.896;2023-02-14T06:36:14;29.45;;;16.10;;
1402;SDS011;696;48.546;9.896;2023-02-14T06:38:39;29.15;;;15.35;;
1402;SDS011;696;48.546;9.896;2023-02-14T06:41:05;41.47;;;16.50;;
1402;SDS011;696;48.546;9.896;2023-02-14T06:43:32;32.47;;;14.65;;
1402;SDS011;696;48.546;9.896;2023-02-14T06:45:57;30.13;;;15.23;;
1402;SDS011;696;48.546;9.896;2023-02-14T06:48:23;28.13;;;15.10;;
1402;SDS011;696;48.546;9.896;2023-02-14T06:50:48;31.77;;;15.05;;
1402;SDS011;696;48.546;9.896;2023-02-14T06:53:14;32.47;;;14.93;;
1402;SDS011;696;48.546;9.896;2023-02-14T06:55:39;30.92;;;14.32;;
1402;SDS011;696;48.546;9.896;2023-02-14T06:58:04;30.63;;;15.95;;
1402;SDS011;696;48.546;9.896;2023-02-14T07:00:30;25.50;;;14.18;;
1402;SDS011;696;48.546;9.896;2023-02-14T07:02:55;30.55;;;15.65;;
1402;SDS011;696;48.546;9.896;2023-02-14T07:05:21;27.02;;;15.88;;
1402;SDS011;696;48.546;9.896;2023-02-14T07:07:46;33.63;;;16.15;;
1402;SDS011;696;48.546;9.896;2023-02-14T07:10:12;29.48;;;14.45;;
1402;SDS011;696;48.546;9.896;2023-02-14T07:12:37;29.58;;;15.25;;
1402;SDS011;696;48.546;9.896;2023-02-14T07:15:06;26.20;;;15.10;;
1402;SDS011;696;48.546;9.896;2023-02-14T07:17:33;31.63;;;14.23;;
1402;SDS011;696;48.546;9.896;2023-02-14T07:19:58;32.75;;;15.20;;
1402;SDS011;696;48.546;9.896;2023-02-14T07:22:23;23.83;;;14.02;;
1402;SDS011;696;48.546;9.896;2023-02-14T07:24:49;33.15;;;15.60;;
1402;SDS011;696;48.546;9.896;2023-02-14T07:27:14;24.58;;;13.63;;
1402;SDS011;696;48.546;9.896;2023-02-14T07:29:39;26.25;;;14.27;;
1402;SDS011;696;48.546;9.896;2023-02-14T07:32:05;28.05;;;14.07;;
1402;SDS011;696;48.546;9.896;2023-02-14T07:34:30;32.83;;;15.15;;
1402;SDS011;696;48.546;9.896;2023-02-14T07:36:55;22.45;;;12.98;;
1402;SDS011;696;48.546;9.896;2023-02-14T07:39:21;27.33;;;13.70;;
1402;SDS011;696;48.546;9.896;2023-02-14T07:41:46;29.23;;;14.85;;
1402;SDS011;696;48.546;9.896;2023-02-14T07:44:11;25.27;;;14.73;;
1402;SDS011;696;48.546;9.896;2023-02-14T07:46:37;37.60;;;15.75;;
1402;SDS011;696;48.546;9.896;2023-02-14T07:49:02;28.75;;;14.15;;
1402;SDS011;696;48.546;9.896;2023-02-14T07:51:28;21.90;;;12.65;;
1402;SDS011;696;48.546;9.896;2023-02-14T07:53:53;29.65;;;13.57;;
1402;SDS011;696;48.546;9.896;2023-02-14T07:56:18;22.48;;;12.02;;
1402;SDS011;696;48.546;9.896;2023-02-14T07:58:44;26.35;;;13.48;;
1402;SDS011;696;48.546;9.896;2023-02-14T08:01:10;24.25;;;13.15;;
1402;SDS011;696;48.546;9.896;2023-02-14T08:03:36;30.08;;;13.93;;
1402;SDS011;696;48.546;9.896;2023-02-14T08:06:01;34.25;;;13.70;;
1402;SDS011;696;48.546;9.896;2023-02-14T08:08:27;26.80;;;13.52;;
1402;SDS011;696;48.546;9.896;2023-02-14T08:10:54;27.58;;;13.43;;
1402;SDS011;696;48.546;9.896;2023-02-14T08:13:19;21.65;;;12.50;;
1402;SDS011;696;48.546;9.896;2023-02-14T08:15:45;22.48;;;13.30;;
1402;SDS011;696;48.546;9.896;2023-02-14T08:18:30;21.45;;;12.80;;
1402;SDS011;696;48.546;9.896;2023-02-14T08:20:59;26.55;;;12.75;;
1402;SDS011;696;48.546;9.896;2023-02-14T08:23:25;22.88;;;13.20;;
1402;SDS011;696;48.546;9.896;2023-02-14T08:25:50;24.25;;;12.90;;
1402;SDS011;696;48.546;9.896;2023-02-14T08:28:16;23.40;;;13.48;;
1402;SDS011;696;48.546;9.896;2023-02-14T08:30:42;22.95;;;13.13;;
1402;SDS011;696;48.546;9.896;2023-02-14T08:33:08;23.52;;;13.60;;
1402;SDS011;696;48.546;9.896;2023-02-14T08:35:34;25.73;;;13.13;;
1402;SDS011;696;48.546;9.896;2023-02-14T08:38:00;27.42;;;13.77;;
1402;SDS011;696;48.546;9.896;2023-02-14T08:40:25;24.27;;;12.65;;
1402;SDS011;696;48.546;9.896;2023-02-14T08:42:51;37.22;;;13.13;;
1402;SDS011;696;48.546;9.896;2023-02-14T08:45:16;25.75;;;13.23;;
1402;SDS011;696;48.546;9.896;2023-02-14T08:47:41;25.67;;;14.25;;
1402;SDS011;696;48.546;9.896;2023-02-14T08:50:08;28.13;;;13.07;;
1402;SDS011;696;48.546;9.896;2023-02-14T08:52:35;33.13;;;13.95;;
1402;SDS011;696;48.546;9.896;2023-02-14T08:55:02;29.65;;;13.52;;
1402;SDS011;696;48.546;9.896;2023-02-14T08:57:29;28.38;;;13.88;;
1402;SDS011;696;48.546;9.896;2023-02-14T08:59:54;21.17;;;13.15;;
1402;SDS011;696;48.546;9.896;2023-02-14T09:02:19;23.27;;;12.80;;
1402;SDS011;696;48.546;9.896;2023-02-14T09:04:45;24.08;;;12.82;;
1402;SDS011;696;48.546;9.896;2023-02-14T09:07:10;28.08;;;13.18;;
1402;SDS011;696;48.546;9.896;2023-02-14T09:09:36;24.33;;;12.98;;
1402;SDS011;696;48.546;9.896;2023-02-14T09:12:03;26.55;;;14.27;;
1402;SDS011;696;48.546;9.896;2023-02-14T09:14:29;24.90;;;13.57;;
1402;SDS011;696;48.546;9.896;2023-02-14T09:16:59;22.02;;;12.77;;
1402;SDS011;696;48.546;9.896;2023-02-14T09:19:29;26.25;;;13.93;;
1402;SDS011;696;48.546;9.896;2023-02-14T09:21:54;19.73;;;11.75;;
1402;SDS011;696;48.546;9.896;2023-02-14T09:24:19;23.98;;;13.20;;
1402;SDS011;696;48.546;9.896;2023-02-14T09:26:45;22.63;;;13.93;;
1402;SDS011;696;48.546;9.896;2023-02-14T09:29:12;27.80;;;12.52;;
1402;SDS011;696;48.546;9.896;2023-02-14T09:31:37;30.05;;;13.32;;
1402;SDS011;696;48.546;9.896;2023-02-14T09:34:03;26.92;;;13.32;;
1402;SDS011;696;48.546;9.896;2023-02-14T09:36:29;23.67;;;12.13;;
1402;SDS011;696;48.546;9.896;2023-02-14T09:39:12;32.33;;;13.77;;
1402;SDS011;696;48.546;9.896;2023-02-14T09:46:56;24.38;;;13.05;;
1402;SDS011;696;48.546;9.896;2023-02-14T09:49:29;28.48;;;12.55;;
1402;SDS011;696;48.546;9.896;2023-02-14T09:51:56;31.25;;;13.88;;
1402;SDS011;696;48.546;9.896;2023-02-14T09:54:26;24.38;;;12.60;;
1402;SDS011;696;48.546;9.896;2023-02-14T10:05:00;20.60;;;11.90;;
1402;SDS011;696;48.546;9.896;2023-02-14T10:10:24;23.08;;;13.48;;
1402;SDS011;696;48.546;9.896;2023-02-14T10:15:42;23.23;;;13.18;;
1402;SDS011;696;48.546;9.896;2023-02-14T10:18:15;20.90;;;12.82;;
1402;SDS011;696;48.546;9.896;2023-02-14T10:20:49;28.38;;;13.60;;
1402;SDS011;696;48.546;9.896;2023-02-14T10:23:22;21.90;;;11.93;;
1402;SDS011;696;48.546;9.896;2023-02-14T10:26:01;22.10;;;13.55;;
1402;SDS011;696;48.546;9.896;2023-02-14T10:28:32;25.73;;;13.65;;
1402;SDS011;696;48.546;9.896;2023-02-14T10:33:45;21.48;;;12.77;;
1402;SDS011;696;48.546;9.896;2023-02-14T10:39:09;26.92;;;13.38;;
1402;SDS011;696;48.546;9.896;2023-02-14T10:42:02;25.63;;;13.70;;
1402;SDS011;696;48.546;9.896;2023-02-14T10:56:07;29.33;;;16.13;;
1402;SDS011;696;48.546;9.896;2023-02-14T10:58:38;26.33;;;15.27;;
1402;SDS011;696;48.546;9.896;2023-02-14T11:01:05;27.98;;;15.88;;
1402;SDS011;696;48.546;9.896;2023-02-14T11:03:32;31.80;;;16.25;;
1402;SDS011;696;48.546;9.896;2023-02-14T11:05:59;27.77;;;15.90;;
1402;SDS011;696;48.546;9.896;2023-02-14T11:08:28;32.03;;;16.20;;
1402;SDS011;696;48.546;9.896;2023-02-14T11:13:41;29.27;;;16.60;;
1402;SDS011;696;48.546;9.896;2023-02-14T11:16:08;35.67;;;15.18;;
1402;SDS011;696;48.546;9.896;2023-02-14T11:18:36;34.17;;;16.88;;
1402;SDS011;696;48.546;9.896;2023-02-14T11:21:05;26.10;;;14.57;;
1402;SDS011;696;48.546;9.896;2023-02-14T11:23:42;26.65;;;15.10;;
1402;SDS011;696;48.546;9.896;2023-02-14T11:26:30;24.88;;;16.20;;
1402;SDS011;696;48.546;9.896;2023-02-14T11:28:59;33.22;;;16.35;;
1402;SDS011;696;48.546;9.896;2023-02-14T11:31:36;34.33;;;16.73;;
1402;SDS011;696;48.546;9.896;2023-02-14T11:34:22;31.08;;;17.00;;
1402;SDS011;696;48.546;9.896;2023-02-14T11:36:47;30.05;;;14.93;;
1402;SDS011;696;48.546;9.896;2023-02-14T11:39:20;28.88;;;14.90;;
1402;SDS011;696;48.546;9.896;2023-02-14T11:41:51;26.73;;;15.93;;
1402;SDS011;696;48.546;9.896;2023-02-14T11:44:19;31.10;;;16.77;;
1402;SDS011;696;48.546;9.896;2023-02-14T11:46:47;36.78;;;16.10;;
1402;SDS011;696;48.546;9.896;2023-02-14T11:51:59;30.05;;;16.52;;
1402;SDS011;696;48.546;9.896;2023-02-14T11:54:39;30.17;;;16.20;;
1402;SDS011;696;48.546;9.896;2023-02-14T11:57:27;26.00;;;15.38;;
1402;SDS011;696;48.546;9.896;2023-02-14T11:59:53;31.58;;;17.90;;
1402;SDS011;696;48.546;9.896;2023-02-14T12:05:04;33.05;;;17.75;;
1402;SDS011;696;48.546;9.896;2023-02-14T12:07:42;28.73;;;15.88;;
1402;SDS011;696;48.546;9.896;2023-02-14T12:15:33;33.90;;;16.98;;
1402;SDS011;696;48.546;9.896;2023-02-14T12:18:20;29.33;;;16.30;;
1402;SDS011;696;48.546;9.896;2023-02-14T12:23:18;34.40;;;17.90;;
1402;SDS011;696;48.546;9.896;2023-02-14T12:25:55;35.08;;;18.88;;
1402;SDS011;696;48.546;9.896;2023-02-14T12:28:26;32.65;;;17.77;;
1402;SDS011;696;48.546;9.896;2023-02-14T12:30:56;31.25;;;18.73;;
1402;SDS011;696;48.546;9.896;2023-02-14T12:33:22;28.42;;;16.80;;
1402;SDS011;696;48.546;9.896;2023-02-14T12:35:54;34.75;;;17.30;;
1402;SDS011;696;48.546;9.896;2023-02-14T12:49:45;37.75;;;18.80;;
1402;SDS011;696;48.546;9.896;2023-02-14T12:56:12;34.85;;;18.30;;
1402;SDS011;696;48.546;9.896;2023-02-14T12:59:07;33.70;;;18.25;;
1402;SDS011;696;48.546;9.896;2023-02-14T13:07:41;34.55;;;18.90;;
1402;SDS011;696;48.546;9.896;2023-02-14T13:12:50;35.53;;;19.17;;
1402;SDS011;696;48.546;9.896;2023-02-14T13:15:34;28.98;;;17.58;;
1402;SDS011;696;48.546;9.896;2023-02-14T13:21:30;30.67;;;18.77;;
1402;SDS011;696;48.546;9.896;2023-02-14T13:27:06;38.30;;;21.40;;
1402;SDS011;696;48.546;9.896;2023-02-14T13:29:40;39.17;;;21.05;;
1402;SDS011;696;48.546;9.896;2023-02-14T13:32:08;38.97;;;20.83;;
1402;SDS011;696;48.546;9.896;2023-02-14T13:34:38;32.33;;;18.65;;
1402;SDS011;696;48.546;9.896;2023-02-14T13:37:06;34.47;;;17.92;;
1402;SDS011;696;48.546;9.896;2023-02-14T13:39:36;28.67;;;18.10;;
1402;SDS011;696;48.546;9.896;2023-02-14T13:42:04;24.73;;;17.17;;
1402;SDS011;696;48.546;9.896;2023-02-14T13:47:24;32.70;;;19.08;;
1402;SDS011;696;48.546;9.896;2023-02-14T13:49:54;30.20;;;18.23;;
1402;SDS011;696;48.546;9.896;2023-02-14T13:55:19;44.17;;;19.35;;
1402;SDS011;696;48.546;9.896;2023-02-14T13:57:46;38.55;;;20.42;;
1402;SDS011;696;48.546;9.896;2023-02-14T14:00:44;33.45;;;19.08;;
1402;SDS011;696;48.546;9.896;2023-02-14T14:08:49;27.30;;;17.63;;
1402;SDS011;696;48.546;9.896;2023-02-14T14:24:18;32.00;;;18.83;;
1402;SDS011;696;48.546;9.896;2023-02-14T14:27:01;31.95;;;18.05;;
1402;SDS011;696;48.546;9.896;2023-02-14T14:31:54;38.10;;;19.13;;
1402;SDS011;696;48.546;9.896;2023-02-14T14:34:20;37.67;;;21.23;;
1402;SDS011;696;48.546;9.896;2023-02-14T14:36:49;42.03;;;21.48;;
1402;SDS011;696;48.546;9.896;2023-02-14T14:39:28;42.95;;;22.67;;
1402;SDS011;696;48.546;9.896;2023-02-14T14:41:55;49.35;;;22.85;;
1402;SDS011;696;48.546;9.896;2023-02-14T14:44:28;56.97;;;23.95;;
1402;SDS011;696;48.546;9.896;2023-02-14T14:46:57;40.17;;;21.17;;
1402;SDS011;696;48.546;9.896;2023-02-14T14:49:23;33.53;;;20.77;;
1402;SDS011;696;48.546;9.896;2023-02-14T14:51:49;41.22;;;20.48;;
1402;SDS011;696;48.546;9.896;2023-02-14T14:54:16;40.03;;;21.10;;
1402;SDS011;696;48.546;9.896;2023-02-14T14:56:51;46.92;;;19.77;;
1402;SDS011;696;48.546;9.896;2023-02-14T15:01:46;43.53;;;20.30;;
1402;SDS011;696;48.546;9.896;2023-02-14T15:04:17;36.78;;;20.05;;
1402;SDS011;696;48.546;9.896;2023-02-14T15:06:44;31.75;;;19.40;;
1402;SDS011;696;48.546;9.896;2023-02-14T15:09:20;43.70;;;21.60;;
1402;SDS011;696;48.546;9.896;2023-02-14T15:11:56;37.72;;;20.67;;
1402;SDS011;696;48.546;9.896;2023-02-14T15:14:42;47.75;;;21.85;;
1402;SDS011;696;48.546;9.896;2023-02-14T15:17:31;38.95;;;20.88;;
1402;SDS011;696;48.546;9.896;2023-02-14T15:20:09;38.15;;;20.40;;
1402;SDS011;696;48.546;9.896;2023-02-14T15:25:12;35.60;;;20.42;;
1402;SDS011;696;48.546;9.896;2023-02-14T15:27:41;36.88;;;20.98;;
1402;SDS011;696;48.546;9.896;2023-02-14T15:30:29;40.13;;;21.73;;
1402;SDS011;696;48.546;9.896;2023-02-14T15:32:58;49.10;;;23.70;;
1402;SDS011;696;48.546;9.896;2023-02-14T15:35:28;50.88;;;24.85;;
1402;SDS011;696;48.546;9.896;2023-02-14T15:37:56;43.90;;;20.85;;
1402;SDS011;696;48.546;9.896;2023-02-14T15:40:23;44.03;;;22.40;;
1402;SDS011;696;48.546;9.896;2023-02-14T15:42:50;39.05;;;19.73;;
1402;SDS011;696;48.546;9.896;2023-02-14T15:47:52;40.50;;;19.52;;
1402;SDS011;696;48.546;9.896;2023-02-14T15:50:24;40.20;;;20.38;;
1402;SDS011;696;48.546;9.896;2023-02-14T15:52:56;37.40;;;19.02;;
1402;SDS011;696;48.546;9.896;2023-02-14T15:55:44;40.22;;;19.42;;
1402;SDS011;696;48.546;9.896;2023-02-14T15:58:14;41.28;;;20.05;;
1402;SDS011;696;48.546;9.896;2023-02-14T16:00:44;42.78;;;18.85;;
1402;SDS011;696;48.546;9.896;2023-02-14T16:03:11;41.58;;;19.60;;
1402;SDS011;696;48.546;9.896;2023-02-14T16:05:46;44.20;;;20.95;;
1402;SDS011;696;48.546;9.896;2023-02-14T16:08:26;36.47;;;19.77;;
1402;SDS011;696;48.546;9.896;2023-02-14T16:13:33;40.25;;;18.75;;
1402;SDS011;696;48.546;9.896;2023-02-14T16:21:13;35.45;;;20.45;;
1402;SDS011;696;48.546;9.896;2023-02-14T16:26:42;42.33;;;21.08;;
1402;SDS011;696;48.546;9.896;2023-02-14T16:31:42;39.40;;;20.17;;
1402;SDS011;696;48.546;9.896;2023-02-14T16:34:13;39.38;;;21.27;;
1402;SDS011;696;48.546;9.896;2023-02-14T16:36:39;39.05;;;20.98;;
1402;SDS011;696;48.546;9.896;2023-02-14T16:39:05;36.58;;;18.80;;
1402;SDS011;696;48.546;9.896;2023-02-14T16:41:31;37.83;;;17.67;;
1402;SDS011;696;48.546;9.896;2023-02-14T16:43:58;35.35;;;17.88;;
1402;SDS011;696;48.546;9.896;2023-02-14T16:46:24;37.30;;;17.83;;
1402;SDS011;696;48.546;9.896;2023-02-14T16:48:51;42.33;;;17.25;;
1402;SDS011;696;48.546;9.896;2023-02-14T16:51:18;32.85;;;16.45;;
1402;SDS011;696;48.546;9.896;2023-02-14T16:53:45;37.78;;;18.52;;
1402;SDS011;696;48.546;9.896;2023-02-14T16:56:18;44.08;;;20.50;;
1402;SDS011;696;48.546;9.896;2023-02-14T16:58:45;37.38;;;18.30;;
1402;SDS011;696;48.546;9.896;2023-02-14T17:01:11;44.33;;;20.27;;
1402;SDS011;696;48.546;9.896;2023-02-14T17:03:36;43.97;;;19.25;;
1402;SDS011;696;48.546;9.896;2023-02-14T17:06:04;37.38;;;18.98;;
1402;SDS011;696;48.546;9.896;2023-02-14T17:08:30;37.85;;;18.50;;
1402;SDS011;696;48.546;9.896;2023-02-14T17:10:55;32.53;;;17.27;;
1402;SDS011;696;48.546;9.896;2023-02-14T17:13:22;32.95;;;17.58;;
1402;SDS011;696;48.546;9.896;2023-02-14T17:15:49;28.05;;;16.90;;
1402;SDS011;696;48.546;9.896;2023-02-14T17:18:15;44.00;;;16.75;;
1402;SDS011;696;48.546;9.896;2023-02-14T17:20:41;47.70;;;17.17;;
1402;SDS011;696;48.546;9.896;2023-02-14T17:23:07;38.28;;;18.25;;
1402;SDS011;696;48.546;9.896;2023-02-14T17:25:33;34.47;;;18.55;;
1402;SDS011;696;48.546;9.896;2023-02-14T17:27:59;31.17;;;17.70;;
1402;SDS011;696;48.546;9.896;2023-02-14T17:30:25;40.70;;;17.92;;
1402;SDS011;696;48.546;9.896;2023-02-14T17:32:50;39.08;;;17.55;;
1402;SDS011;696;48.546;9.896;2023-02-14T17:35:15;41.67;;;20.88;;
1402;SDS011;696;48.546;9.896;2023-02-14T17:37:41;33.13;;;18.02;;
1402;SDS011;696;48.546;9.896;2023-02-14T17:40:06;48.42;;;19.60;;
1402;SDS011;696;48.546;9.896;2023-02-14T17:42:33;35.47;;;18.73;;
1402;SDS011;696;48.546;9.896;2023-02-14T17:44:59;32.45;;;18.98;;
1402;SDS011;696;48.546;9.896;2023-02-14T17:47:24;40.45;;;18.95;;
1402;SDS011;696;48.546;9.896;2023-02-14T17:49:50;32.58;;;17.88;;
1402;SDS011;696;48.546;9.896;2023-02-14T17:52:15;33.45;;;18.52;;
1402;SDS011;696;48.546;9.896;2023-02-14T17:54:41;42.78;;;20.25;;
1402;SDS011;696;48.546;9.896;2023-02-14T17:57:06;35.40;;;17.73;;
1402;SDS011;696;48.546;9.896;2023-02-14T17:59:32;30.90;;;17.00;;
1402;SDS011;696;48.546;9.896;2023-02-14T18:01:58;28.42;;;15.85;;